Terminal Aerodrome Forecast
Issued by NWS San Angelo, TX

Home | Current Version | Previous Version | Text Only | Print | Product List | Glossary On
Versions: 1 2 3 4 5 6 7 8 9 10 11 12 13 14 15 16 17 18 19 20 21 22 23 24 25 26 27 28 29 30 31
697
FTUS44 KSJT 091120
TAFABI
TAF
KABI 091120Z 0912/1012 13006KT P6SM OVC045
     FM091800 18011KT P6SM SCT060
     FM100000 17008KT P6SM SKC=

USA.gov is the U.S. government's official web portal to all federal, state and local government web resources and services.